sensor_id;sensor_type;location;lat;lon;timestamp;P1;durP1;ratioP1;P2;durP2;ratioP2
45326;SDS011;31062;49.678;24.560;2024-03-08T00:02:36;15.23;;;9.18;;
45326;SDS011;31062;49.678;24.560;2024-03-08T00:05:22;16.88;;;8.93;;
45326;SDS011;31062;49.678;24.560;2024-03-08T00:08:10;12.93;;;8.18;;
45326;SDS011;31062;49.678;24.560;2024-03-08T00:10:56;18.50;;;8.45;;
45326;SDS011;31062;49.678;24.560;2024-03-08T00:13:45;17.27;;;8.57;;
45326;SDS011;31062;49.678;24.560;2024-03-08T00:16:31;13.52;;;7.85;;
45326;SDS011;31062;49.678;24.560;2024-03-08T00:19:17;17.23;;;8.60;;
45326;SDS011;31062;49.678;24.560;2024-03-08T00:22:02;17.20;;;8.65;;
45326;SDS011;31062;49.678;24.560;2024-03-08T00:24:48;18.55;;;8.70;;
45326;SDS011;31062;49.678;24.560;2024-03-08T00:27:36;13.60;;;8.27;;
45326;SDS011;31062;49.678;24.560;2024-03-08T00:30:23;13.73;;;8.65;;
45326;SDS011;31062;49.678;24.560;2024-03-08T00:33:10;13.27;;;8.25;;
45326;SDS011;31062;49.678;24.560;2024-03-08T00:35:56;14.68;;;8.73;;
45326;SDS011;31062;49.678;24.560;2024-03-08T00:38:42;15.82;;;8.60;;
45326;SDS011;31062;49.678;24.560;2024-03-08T00:41:28;14.90;;;8.95;;
45326;SDS011;31062;49.678;24.560;2024-03-08T00:44:15;17.00;;;8.98;;
45326;SDS011;31062;49.678;24.560;2024-03-08T00:47:00;17.35;;;8.77;;
45326;SDS011;31062;49.678;24.560;2024-03-08T00:49:47;13.32;;;8.20;;
45326;SDS011;31062;49.678;24.560;2024-03-08T00:52:34;14.95;;;8.95;;
45326;SDS011;31062;49.678;24.560;2024-03-08T00:55:21;14.20;;;8.35;;
45326;SDS011;31062;49.678;24.560;2024-03-08T00:58:08;12.20;;;7.43;;
45326;SDS011;31062;49.678;24.560;2024-03-08T01:00:54;14.07;;;8.40;;
45326;SDS011;31062;49.678;24.560;2024-03-08T01:03:42;16.35;;;8.25;;
45326;SDS011;31062;49.678;24.560;2024-03-08T01:06:48;12.77;;;8.07;;
45326;SDS011;31062;49.678;24.560;2024-03-08T01:09:55;13.25;;;8.02;;
45326;SDS011;31062;49.678;24.560;2024-03-08T01:13:00;11.93;;;7.88;;
45326;SDS011;31062;49.678;24.560;2024-03-08T01:16:06;16.92;;;10.13;;
45326;SDS011;31062;49.678;24.560;2024-03-08T01:19:12;18.90;;;11.48;;
45326;SDS011;31062;49.678;24.560;2024-03-08T01:22:18;13.75;;;8.82;;
45326;SDS011;31062;49.678;24.560;2024-03-08T01:25:24;15.05;;;9.50;;
45326;SDS011;31062;49.678;24.560;2024-03-08T01:28:30;12.40;;;8.13;;
45326;SDS011;31062;49.678;24.560;2024-03-08T01:31:37;13.00;;;8.07;;
45326;SDS011;31062;49.678;24.560;2024-03-08T01:34:44;17.20;;;8.35;;
45326;SDS011;31062;49.678;24.560;2024-03-08T01:37:49;13.35;;;8.07;;
45326;SDS011;31062;49.678;24.560;2024-03-08T01:40:55;28.23;;;13.02;;
45326;SDS011;31062;49.678;24.560;2024-03-08T01:44:01;14.05;;;8.65;;
45326;SDS011;31062;49.678;24.560;2024-03-08T01:47:08;19.52;;;9.63;;
45326;SDS011;31062;49.678;24.560;2024-03-08T01:50:14;13.35;;;8.77;;
45326;SDS011;31062;49.678;24.560;2024-03-08T01:53:22;15.88;;;10.15;;
45326;SDS011;31062;49.678;24.560;2024-03-08T01:56:28;20.17;;;11.40;;
45326;SDS011;31062;49.678;24.560;2024-03-08T01:59:35;12.05;;;7.95;;
45326;SDS011;31062;49.678;24.560;2024-03-08T02:02:40;12.75;;;7.57;;
45326;SDS011;31062;49.678;24.560;2024-03-08T02:05:47;13.75;;;8.02;;
45326;SDS011;31062;49.678;24.560;2024-03-08T02:08:53;12.93;;;6.85;;
45326;SDS011;31062;49.678;24.560;2024-03-08T02:12:04;12.25;;;7.57;;
45326;SDS011;31062;49.678;24.560;2024-03-08T02:15:10;11.85;;;7.38;;
45326;SDS011;31062;49.678;24.560;2024-03-08T02:18:16;12.15;;;7.93;;
45326;SDS011;31062;49.678;24.560;2024-03-08T02:21:23;12.82;;;8.02;;
45326;SDS011;31062;49.678;24.560;2024-03-08T02:24:29;16.27;;;8.77;;
45326;SDS011;31062;49.678;24.560;2024-03-08T02:27:34;18.33;;;8.82;;
45326;SDS011;31062;49.678;24.560;2024-03-08T02:30:41;14.95;;;8.70;;
45326;SDS011;31062;49.678;24.560;2024-03-08T02:33:47;12.35;;;7.82;;
45326;SDS011;31062;49.678;24.560;2024-03-08T02:36:52;14.82;;;8.60;;
45326;SDS011;31062;49.678;24.560;2024-03-08T02:39:38;23.52;;;8.90;;
45326;SDS011;31062;49.678;24.560;2024-03-08T02:42:24;15.05;;;8.52;;
45326;SDS011;31062;49.678;24.560;2024-03-08T02:45:10;15.55;;;8.43;;
45326;SDS011;31062;49.678;24.560;2024-03-08T02:47:57;13.10;;;8.20;;
45326;SDS011;31062;49.678;24.560;2024-03-08T02:50:42;11.40;;;8.00;;
45326;SDS011;31062;49.678;24.560;2024-03-08T02:53:31;10.95;;;7.57;;
45326;SDS011;31062;49.678;24.560;2024-03-08T02:56:17;14.98;;;8.60;;
45326;SDS011;31062;49.678;24.560;2024-03-08T02:59:04;13.10;;;8.07;;
45326;SDS011;31062;49.678;24.560;2024-03-08T03:01:50;18.65;;;10.43;;
45326;SDS011;31062;49.678;24.560;2024-03-08T03:04:36;23.20;;;11.57;;
45326;SDS011;31062;49.678;24.560;2024-03-08T03:07:22;15.40;;;9.18;;
45326;SDS011;31062;49.678;24.560;2024-03-08T03:10:08;11.00;;;7.40;;
45326;SDS011;31062;49.678;24.560;2024-03-08T03:12:54;14.63;;;7.80;;
45326;SDS011;31062;49.678;24.560;2024-03-08T03:15:40;11.77;;;7.15;;
45326;SDS011;31062;49.678;24.560;2024-03-08T03:18:30;13.05;;;7.30;;
45326;SDS011;31062;49.678;24.560;2024-03-08T03:21:19;11.98;;;7.65;;
45326;SDS011;31062;49.678;24.560;2024-03-08T03:24:05;12.55;;;7.88;;
45326;SDS011;31062;49.678;24.560;2024-03-08T03:26:56;13.32;;;7.60;;
45326;SDS011;31062;49.678;24.560;2024-03-08T03:29:42;12.75;;;7.32;;
45326;SDS011;31062;49.678;24.560;2024-03-08T03:32:32;14.60;;;7.30;;
45326;SDS011;31062;49.678;24.560;2024-03-08T03:35:18;12.15;;;7.10;;
45326;SDS011;31062;49.678;24.560;2024-03-08T03:38:24;11.98;;;7.35;;
45326;SDS011;31062;49.678;24.560;2024-03-08T03:41:30;11.25;;;6.97;;
45326;SDS011;31062;49.678;24.560;2024-03-08T03:44:36;12.82;;;7.65;;
45326;SDS011;31062;49.678;24.560;2024-03-08T03:47:42;10.73;;;7.20;;
45326;SDS011;31062;49.678;24.560;2024-03-08T03:50:49;11.20;;;7.13;;
45326;SDS011;31062;49.678;24.560;2024-03-08T03:53:54;12.85;;;7.80;;
45326;SDS011;31062;49.678;24.560;2024-03-08T03:57:00;10.27;;;6.75;;
45326;SDS011;31062;49.678;24.560;2024-03-08T04:00:06;16.83;;;7.30;;
45326;SDS011;31062;49.678;24.560;2024-03-08T04:03:16;10.18;;;6.82;;
45326;SDS011;31062;49.678;24.560;2024-03-08T04:06:21;9.30;;;7.15;;
45326;SDS011;31062;49.678;24.560;2024-03-08T04:09:27;12.85;;;7.53;;
45326;SDS011;31062;49.678;24.560;2024-03-08T04:12:34;14.90;;;7.10;;
45326;SDS011;31062;49.678;24.560;2024-03-08T04:15:40;11.15;;;7.82;;
45326;SDS011;31062;49.678;24.560;2024-03-08T04:18:51;10.77;;;7.18;;
45326;SDS011;31062;49.678;24.560;2024-03-08T04:21:58;11.55;;;7.40;;
45326;SDS011;31062;49.678;24.560;2024-03-08T04:25:04;12.43;;;7.22;;
45326;SDS011;31062;49.678;24.560;2024-03-08T04:28:11;13.68;;;7.82;;
45326;SDS011;31062;49.678;24.560;2024-03-08T04:31:19;9.52;;;6.40;;
45326;SDS011;31062;49.678;24.560;2024-03-08T04:34:26;11.93;;;7.20;;
45326;SDS011;31062;49.678;24.560;2024-03-08T04:37:32;12.30;;;7.78;;
45326;SDS011;31062;49.678;24.560;2024-03-08T04:40:39;12.93;;;8.15;;
45326;SDS011;31062;49.678;24.560;2024-03-08T04:43:45;11.68;;;7.45;;
45326;SDS011;31062;49.678;24.560;2024-03-08T04:46:53;16.65;;;7.63;;
45326;SDS011;31062;49.678;24.560;2024-03-08T04:49:58;13.60;;;7.88;;
45326;SDS011;31062;49.678;24.560;2024-03-08T04:53:04;13.02;;;7.47;;
45326;SDS011;31062;49.678;24.560;2024-03-08T04:56:09;10.68;;;7.15;;
45326;SDS011;31062;49.678;24.560;2024-03-08T04:59:16;11.95;;;7.75;;
45326;SDS011;31062;49.678;24.560;2024-03-08T05:02:22;11.20;;;7.15;;
45326;SDS011;31062;49.678;24.560;2024-03-08T05:05:31;12.23;;;7.88;;
45326;SDS011;31062;49.678;24.560;2024-03-08T05:08:37;9.80;;;7.00;;
45326;SDS011;31062;49.678;24.560;2024-03-08T05:11:43;13.43;;;7.80;;
45326;SDS011;31062;49.678;24.560;2024-03-08T05:14:49;11.80;;;7.57;;
45326;SDS011;31062;49.678;24.560;2024-03-08T05:17:55;12.45;;;7.72;;
45326;SDS011;31062;49.678;24.560;2024-03-08T05:21:01;12.43;;;7.43;;
45326;SDS011;31062;49.678;24.560;2024-03-08T05:24:08;13.60;;;7.78;;
45326;SDS011;31062;49.678;24.560;2024-03-08T05:27:14;12.38;;;7.38;;
45326;SDS011;31062;49.678;24.560;2024-03-08T05:30:20;13.73;;;7.80;;
45326;SDS011;31062;49.678;24.560;2024-03-08T05:33:25;13.48;;;7.65;;
45326;SDS011;31062;49.678;24.560;2024-03-08T05:36:32;13.82;;;7.85;;
45326;SDS011;31062;49.678;24.560;2024-03-08T05:39:38;11.45;;;7.55;;
45326;SDS011;31062;49.678;24.560;2024-03-08T05:42:44;13.90;;;8.15;;
45326;SDS011;31062;49.678;24.560;2024-03-08T05:45:49;10.90;;;7.40;;
45326;SDS011;31062;49.678;24.560;2024-03-08T05:48:55;12.38;;;7.97;;
45326;SDS011;31062;49.678;24.560;2024-03-08T05:52:00;11.35;;;7.10;;
45326;SDS011;31062;49.678;24.560;2024-03-08T05:55:07;15.80;;;7.25;;
45326;SDS011;31062;49.678;24.560;2024-03-08T05:58:13;16.20;;;8.10;;
45326;SDS011;31062;49.678;24.560;2024-03-08T06:01:20;15.82;;;7.63;;
45326;SDS011;31062;49.678;24.560;2024-03-08T06:04:07;13.13;;;7.72;;
45326;SDS011;31062;49.678;24.560;2024-03-08T06:06:54;13.68;;;8.00;;
45326;SDS011;31062;49.678;24.560;2024-03-08T06:09:42;14.23;;;8.27;;
45326;SDS011;31062;49.678;24.560;2024-03-08T06:12:30;13.00;;;7.28;;
45326;SDS011;31062;49.678;24.560;2024-03-08T06:15:18;13.45;;;8.38;;
45326;SDS011;31062;49.678;24.560;2024-03-08T06:18:06;12.70;;;7.75;;
45326;SDS011;31062;49.678;24.560;2024-03-08T06:20:56;12.45;;;7.97;;
45326;SDS011;31062;49.678;24.560;2024-03-08T06:23:42;11.73;;;7.13;;
45326;SDS011;31062;49.678;24.560;2024-03-08T06:26:27;12.77;;;8.35;;
45326;SDS011;31062;49.678;24.560;2024-03-08T06:29:18;12.38;;;7.80;;
45326;SDS011;31062;49.678;24.560;2024-03-08T06:32:03;19.10;;;10.90;;
45326;SDS011;31062;49.678;24.560;2024-03-08T06:34:50;15.10;;;9.02;;
45326;SDS011;31062;49.678;24.560;2024-03-08T06:37:36;15.15;;;9.85;;
45326;SDS011;31062;49.678;24.560;2024-03-08T06:40:43;18.42;;;9.77;;
45326;SDS011;31062;49.678;24.560;2024-03-08T06:43:48;13.18;;;8.65;;
45326;SDS011;31062;49.678;24.560;2024-03-08T06:46:54;14.52;;;8.50;;
45326;SDS011;31062;49.678;24.560;2024-03-08T06:50:00;13.65;;;8.40;;
45326;SDS011;31062;49.678;24.560;2024-03-08T06:53:06;16.70;;;8.60;;
45326;SDS011;31062;49.678;24.560;2024-03-08T06:56:13;13.25;;;8.52;;
45326;SDS011;31062;49.678;24.560;2024-03-08T06:59:18;15.00;;;7.97;;
45326;SDS011;31062;49.678;24.560;2024-03-08T07:02:24;13.27;;;8.07;;
45326;SDS011;31062;49.678;24.560;2024-03-08T07:05:30;16.55;;;9.68;;
45326;SDS011;31062;49.678;24.560;2024-03-08T07:08:35;21.08;;;8.98;;
45326;SDS011;31062;49.678;24.560;2024-03-08T07:11:41;14.05;;;8.55;;
45326;SDS011;31062;49.678;24.560;2024-03-08T07:14:48;11.40;;;8.00;;
45326;SDS011;31062;49.678;24.560;2024-03-08T07:17:56;13.38;;;7.90;;
45326;SDS011;31062;49.678;24.560;2024-03-08T07:21:02;16.83;;;8.73;;
45326;SDS011;31062;49.678;24.560;2024-03-08T07:24:08;11.77;;;7.93;;
45326;SDS011;31062;49.678;24.560;2024-03-08T07:27:04;13.68;;;8.65;;
45326;SDS011;31062;49.678;24.560;2024-03-08T07:30:12;20.77;;;11.27;;
45326;SDS011;31062;49.678;24.560;2024-03-08T07:33:18;14.13;;;9.55;;
45326;SDS011;31062;49.678;24.560;2024-03-08T07:36:05;13.27;;;8.32;;
45326;SDS011;31062;49.678;24.560;2024-03-08T07:38:50;14.07;;;8.90;;
45326;SDS011;31062;49.678;24.560;2024-03-08T07:41:37;16.48;;;8.38;;
45326;SDS011;31062;49.678;24.560;2024-03-08T07:44:44;13.65;;;9.30;;
45326;SDS011;31062;49.678;24.560;2024-03-08T07:47:31;16.65;;;9.50;;
45326;SDS011;31062;49.678;24.560;2024-03-08T07:50:19;13.45;;;8.23;;
45326;SDS011;31062;49.678;24.560;2024-03-08T07:53:05;13.82;;;9.27;;
45326;SDS011;31062;49.678;24.560;2024-03-08T07:55:52;15.30;;;8.75;;
45326;SDS011;31062;49.678;24.560;2024-03-08T07:58:39;19.70;;;9.15;;
45326;SDS011;31062;49.678;24.560;2024-03-08T08:01:26;13.95;;;8.50;;
45326;SDS011;31062;49.678;24.560;2024-03-08T08:04:12;16.40;;;8.30;;
45326;SDS011;31062;49.678;24.560;2024-03-08T08:06:59;15.15;;;8.63;;
45326;SDS011;31062;49.678;24.560;2024-03-08T08:09:46;13.63;;;8.48;;
45326;SDS011;31062;49.678;24.560;2024-03-08T08:12:31;15.70;;;8.65;;
45326;SDS011;31062;49.678;24.560;2024-03-08T08:15:20;11.90;;;7.47;;
45326;SDS011;31062;49.678;24.560;2024-03-08T08:18:05;14.00;;;8.30;;
45326;SDS011;31062;49.678;24.560;2024-03-08T08:20:53;11.90;;;7.53;;
45326;SDS011;31062;49.678;24.560;2024-03-08T08:23:58;11.77;;;7.53;;
45326;SDS011;31062;49.678;24.560;2024-03-08T08:27:04;12.65;;;8.23;;
45326;SDS011;31062;49.678;24.560;2024-03-08T08:30:10;12.57;;;7.72;;
45326;SDS011;31062;49.678;24.560;2024-03-08T08:33:17;15.63;;;7.78;;
45326;SDS011;31062;49.678;24.560;2024-03-08T08:36:22;11.73;;;7.47;;
45326;SDS011;31062;49.678;24.560;2024-03-08T08:39:29;10.02;;;7.55;;
45326;SDS011;31062;49.678;24.560;2024-03-08T08:42:35;11.15;;;7.45;;
45326;SDS011;31062;49.678;24.560;2024-03-08T08:45:42;11.43;;;7.07;;
45326;SDS011;31062;49.678;24.560;2024-03-08T08:48:47;11.10;;;6.93;;
45326;SDS011;31062;49.678;24.560;2024-03-08T08:51:55;17.38;;;7.70;;
45326;SDS011;31062;49.678;24.560;2024-03-08T08:55:01;16.67;;;7.20;;
45326;SDS011;31062;49.678;24.560;2024-03-08T08:58:07;11.65;;;6.50;;
45326;SDS011;31062;49.678;24.560;2024-03-08T09:01:13;10.77;;;7.68;;
45326;SDS011;31062;49.678;24.560;2024-03-08T09:04:20;11.52;;;6.50;;
45326;SDS011;31062;49.678;24.560;2024-03-08T09:07:25;13.13;;;6.90;;
45326;SDS011;31062;49.678;24.560;2024-03-08T09:10:31;16.08;;;7.70;;
45326;SDS011;31062;49.678;24.560;2024-03-08T09:13:37;11.93;;;6.60;;
45326;SDS011;31062;49.678;24.560;2024-03-08T09:16:43;8.32;;;6.38;;
45326;SDS011;31062;49.678;24.560;2024-03-08T09:19:48;9.40;;;6.60;;
45326;SDS011;31062;49.678;24.560;2024-03-08T09:22:54;11.18;;;6.78;;
45326;SDS011;31062;49.678;24.560;2024-03-08T09:26:01;10.10;;;6.55;;
45326;SDS011;31062;49.678;24.560;2024-03-08T09:29:13;10.18;;;6.72;;
45326;SDS011;31062;49.678;24.560;2024-03-08T09:32:19;10.27;;;6.28;;
45326;SDS011;31062;49.678;24.560;2024-03-08T09:35:25;10.52;;;6.38;;
45326;SDS011;31062;49.678;24.560;2024-03-08T09:38:31;15.73;;;6.90;;
45326;SDS011;31062;49.678;24.560;2024-03-08T09:41:36;9.52;;;6.57;;
45326;SDS011;31062;49.678;24.560;2024-03-08T09:44:46;9.18;;;7.03;;
45326;SDS011;31062;49.678;24.560;2024-03-08T09:47:52;10.02;;;6.90;;
45326;SDS011;31062;49.678;24.560;2024-03-08T09:50:58;11.30;;;7.40;;
45326;SDS011;31062;49.678;24.560;2024-03-08T09:54:04;10.52;;;6.82;;
45326;SDS011;31062;49.678;24.560;2024-03-08T09:57:09;14.73;;;7.78;;
45326;SDS011;31062;49.678;24.560;2024-03-08T10:00:20;11.52;;;7.53;;
45326;SDS011;31062;49.678;24.560;2024-03-08T10:03:26;14.93;;;7.80;;
45326;SDS011;31062;49.678;24.560;2024-03-08T10:06:32;12.57;;;6.95;;
45326;SDS011;31062;49.678;24.560;2024-03-08T10:09:38;11.60;;;7.03;;
45326;SDS011;31062;49.678;24.560;2024-03-08T10:12:44;15.88;;;7.50;;
45326;SDS011;31062;49.678;24.560;2024-03-08T10:15:51;9.88;;;6.68;;
45326;SDS011;31062;49.678;24.560;2024-03-08T10:18:56;11.50;;;7.22;;
45326;SDS011;31062;49.678;24.560;2024-03-08T10:22:02;18.35;;;7.43;;
45326;SDS011;31062;49.678;24.560;2024-03-08T10:25:09;10.55;;;7.32;;
45326;SDS011;31062;49.678;24.560;2024-03-08T10:28:18;10.10;;;7.10;;
45326;SDS011;31062;49.678;24.560;2024-03-08T10:31:24;10.38;;;7.18;;
45326;SDS011;31062;49.678;24.560;2024-03-08T10:34:29;10.82;;;7.00;;
45326;SDS011;31062;49.678;24.560;2024-03-08T10:37:47;10.57;;;7.13;;
45326;SDS011;31062;49.678;24.560;2024-03-08T10:40:54;10.38;;;6.85;;
45326;SDS011;31062;49.678;24.560;2024-03-08T10:44:10;12.30;;;7.15;;
45326;SDS011;31062;49.678;24.560;2024-03-08T10:47:26;9.10;;;6.28;;
45326;SDS011;31062;49.678;24.560;2024-03-08T10:50:36;13.05;;;8.93;;
45326;SDS011;31062;49.678;24.560;2024-03-08T10:53:43;14.48;;;9.15;;
45326;SDS011;31062;49.678;24.560;2024-03-08T10:56:52;11.18;;;7.20;;
45326;SDS011;31062;49.678;24.560;2024-03-08T10:59:58;13.63;;;8.00;;
45326;SDS011;31062;49.678;24.560;2024-03-08T11:03:04;11.75;;;7.40;;
45326;SDS011;31062;49.678;24.560;2024-03-08T11:06:29;23.02;;;12.52;;
45326;SDS011;31062;49.678;24.560;2024-03-08T11:09:36;11.07;;;6.95;;
45326;SDS011;31062;49.678;24.560;2024-03-08T11:12:42;14.27;;;7.20;;
45326;SDS011;31062;49.678;24.560;2024-03-08T11:15:48;12.88;;;7.43;;
45326;SDS011;31062;49.678;24.560;2024-03-08T11:18:54;11.68;;;7.43;;
45326;SDS011;31062;49.678;24.560;2024-03-08T11:22:06;13.38;;;8.15;;
45326;SDS011;31062;49.678;24.560;2024-03-08T11:25:30;13.77;;;8.95;;
45326;SDS011;31062;49.678;24.560;2024-03-08T11:28:37;11.40;;;7.50;;
45326;SDS011;31062;49.678;24.560;2024-03-08T11:31:43;11.05;;;7.30;;
45326;SDS011;31062;49.678;24.560;2024-03-08T11:34:49;15.55;;;7.15;;
45326;SDS011;31062;49.678;24.560;2024-03-08T11:37:59;14.50;;;8.55;;
45326;SDS011;31062;49.678;24.560;2024-03-08T11:41:07;11.80;;;7.32;;
45326;SDS011;31062;49.678;24.560;2024-03-08T11:44:03;12.38;;;7.85;;
45326;SDS011;31062;49.678;24.560;2024-03-08T11:46:50;10.38;;;7.50;;
45326;SDS011;31062;49.678;24.560;2024-03-08T11:49:38;11.50;;;7.70;;
45326;SDS011;31062;49.678;24.560;2024-03-08T11:52:47;43.08;;;23.45;;
45326;SDS011;31062;49.678;24.560;2024-03-08T11:55:32;14.98;;;9.82;;
45326;SDS011;31062;49.678;24.560;2024-03-08T11:58:21;11.02;;;8.15;;
45326;SDS011;31062;49.678;24.560;2024-03-08T12:01:27;10.13;;;7.18;;
45326;SDS011;31062;49.678;24.560;2024-03-08T12:04:33;13.63;;;8.02;;
45326;SDS011;31062;49.678;24.560;2024-03-08T12:07:39;12.95;;;7.95;;
45326;SDS011;31062;49.678;24.560;2024-03-08T12:10:45;10.02;;;6.88;;
45326;SDS011;31062;49.678;24.560;2024-03-08T12:13:31;13.88;;;7.22;;
45326;SDS011;31062;49.678;24.560;2024-03-08T12:16:27;9.25;;;6.47;;
45326;SDS011;31062;49.678;24.560;2024-03-08T12:19:33;11.25;;;7.03;;
45326;SDS011;31062;49.678;24.560;2024-03-08T12:22:42;9.95;;;6.40;;
45326;SDS011;31062;49.678;24.560;2024-03-08T12:25:49;10.57;;;7.47;;
45326;SDS011;31062;49.678;24.560;2024-03-08T12:28:56;11.77;;;7.18;;
45326;SDS011;31062;49.678;24.560;2024-03-08T12:32:39;10.40;;;6.53;;
45326;SDS011;31062;49.678;24.560;2024-03-08T12:35:29;21.85;;;12.98;;
45326;SDS011;31062;49.678;24.560;2024-03-08T12:38:17;10.43;;;7.28;;
45326;SDS011;31062;49.678;24.560;2024-03-08T12:41:23;11.50;;;7.75;;
45326;SDS011;31062;49.678;24.560;2024-03-08T12:44:29;12.18;;;7.10;;
45326;SDS011;31062;49.678;24.560;2024-03-08T12:47:16;10.63;;;7.22;;
45326;SDS011;31062;49.678;24.560;2024-03-08T12:50:22;10.35;;;7.03;;
45326;SDS011;31062;49.678;24.560;2024-03-08T12:53:29;14.88;;;8.10;;
45326;SDS011;31062;49.678;24.560;2024-03-08T12:56:35;11.50;;;7.40;;
45326;SDS011;31062;49.678;24.560;2024-03-08T12:59:41;18.73;;;9.00;;
45326;SDS011;31062;49.678;24.560;2024-03-08T13:02:47;27.15;;;11.57;;
45326;SDS011;31062;49.678;24.560;2024-03-08T13:05:53;14.75;;;8.38;;
45326;SDS011;31062;49.678;24.560;2024-03-08T13:09:00;11.90;;;7.35;;
45326;SDS011;31062;49.678;24.560;2024-03-08T13:12:06;11.48;;;7.50;;
45326;SDS011;31062;49.678;24.560;2024-03-08T13:14:53;12.32;;;6.63;;
45326;SDS011;31062;49.678;24.560;2024-03-08T13:17:56;9.32;;;6.63;;
45326;SDS011;31062;49.678;24.560;2024-03-08T13:20:45;10.60;;;6.18;;
45326;SDS011;31062;49.678;24.560;2024-03-08T13:23:35;9.98;;;6.55;;
45326;SDS011;31062;49.678;24.560;2024-03-08T13:26:32;9.95;;;6.63;;
45326;SDS011;31062;49.678;24.560;2024-03-08T13:29:38;9.25;;;6.45;;
45326;SDS011;31062;49.678;24.560;2024-03-08T13:32:43;9.43;;;6.18;;
45326;SDS011;31062;49.678;24.560;2024-03-08T13:35:50;8.35;;;6.30;;
45326;SDS011;31062;49.678;24.560;2024-03-08T13:38:57;8.20;;;5.80;;
45326;SDS011;31062;49.678;24.560;2024-03-08T13:42:04;9.57;;;6.70;;
45326;SDS011;31062;49.678;24.560;2024-03-08T13:45:09;9.85;;;6.38;;
45326;SDS011;31062;49.678;24.560;2024-03-08T13:48:18;8.93;;;6.10;;
45326;SDS011;31062;49.678;24.560;2024-03-08T13:51:24;8.75;;;6.10;;
45326;SDS011;31062;49.678;24.560;2024-03-08T13:54:30;10.30;;;6.15;;
45326;SDS011;31062;49.678;24.560;2024-03-08T13:57:35;9.38;;;6.30;;
45326;SDS011;31062;49.678;24.560;2024-03-08T14:00:42;11.10;;;6.60;;
45326;SDS011;31062;49.678;24.560;2024-03-08T14:03:47;10.35;;;6.50;;
45326;SDS011;31062;49.678;24.560;2024-03-08T14:06:54;13.10;;;7.40;;
45326;SDS011;31062;49.678;24.560;2024-03-08T14:10:00;13.25;;;8.02;;
45326;SDS011;31062;49.678;24.560;2024-03-08T14:13:06;11.40;;;6.57;;
45326;SDS011;31062;49.678;24.560;2024-03-08T14:16:12;20.50;;;11.93;;
45326;SDS011;31062;49.678;24.560;2024-03-08T14:19:19;12.65;;;7.28;;
45326;SDS011;31062;49.678;24.560;2024-03-08T14:22:25;10.48;;;6.80;;
45326;SDS011;31062;49.678;24.560;2024-03-08T14:25:31;9.55;;;7.07;;
45326;SDS011;31062;49.678;24.560;2024-03-08T14:28:36;27.70;;;14.55;;
45326;SDS011;31062;49.678;24.560;2024-03-08T14:31:43;13.27;;;8.18;;
45326;SDS011;31062;49.678;24.560;2024-03-08T14:34:48;13.52;;;7.40;;
45326;SDS011;31062;49.678;24.560;2024-03-08T14:37:54;13.82;;;6.88;;
45326;SDS011;31062;49.678;24.560;2024-03-08T14:41:00;9.77;;;7.10;;
45326;SDS011;31062;49.678;24.560;2024-03-08T14:44:06;12.00;;;8.00;;
45326;SDS011;31062;49.678;24.560;2024-03-08T14:47:12;9.00;;;5.88;;
45326;SDS011;31062;49.678;24.560;2024-03-08T14:50:19;15.65;;;7.88;;
45326;SDS011;31062;49.678;24.560;2024-03-08T14:53:26;10.88;;;6.82;;
45326;SDS011;31062;49.678;24.560;2024-03-08T14:56:32;10.50;;;7.15;;
45326;SDS011;31062;49.678;24.560;2024-03-08T14:59:38;11.25;;;7.32;;
45326;SDS011;31062;49.678;24.560;2024-03-08T15:02:44;13.20;;;7.63;;
45326;SDS011;31062;49.678;24.560;2024-03-08T15:05:50;10.73;;;6.43;;
45326;SDS011;31062;49.678;24.560;2024-03-08T15:08:56;11.23;;;7.05;;
45326;SDS011;31062;49.678;24.560;2024-03-08T15:12:02;12.10;;;7.57;;
45326;SDS011;31062;49.678;24.560;2024-03-08T15:15:08;11.10;;;6.20;;
45326;SDS011;31062;49.678;24.560;2024-03-08T15:18:15;11.38;;;7.32;;
45326;SDS011;31062;49.678;24.560;2024-03-08T15:21:21;9.98;;;6.50;;
45326;SDS011;31062;49.678;24.560;2024-03-08T15:24:27;9.57;;;6.38;;
45326;SDS011;31062;49.678;24.560;2024-03-08T15:27:33;12.10;;;6.65;;
45326;SDS011;31062;49.678;24.560;2024-03-08T15:30:39;10.93;;;5.80;;
45326;SDS011;31062;49.678;24.560;2024-03-08T15:33:46;12.20;;;6.80;;
45326;SDS011;31062;49.678;24.560;2024-03-08T15:36:54;12.32;;;6.40;;
45326;SDS011;31062;49.678;24.560;2024-03-08T15:40:00;10.82;;;6.70;;
45326;SDS011;31062;49.678;24.560;2024-03-08T15:43:06;10.93;;;7.07;;
45326;SDS011;31062;49.678;24.560;2024-03-08T15:46:12;11.23;;;6.90;;
45326;SDS011;31062;49.678;24.560;2024-03-08T15:49:06;9.43;;;7.10;;
45326;SDS011;31062;49.678;24.560;2024-03-08T15:52:12;10.05;;;6.80;;
45326;SDS011;31062;49.678;24.560;2024-03-08T15:55:18;10.60;;;7.05;;
45326;SDS011;31062;49.678;24.560;2024-03-08T15:58:31;13.38;;;6.43;;
45326;SDS011;31062;49.678;24.560;2024-03-08T16:01:38;9.40;;;6.57;;
45326;SDS011;31062;49.678;24.560;2024-03-08T16:04:44;8.18;;;5.68;;
45326;SDS011;31062;49.678;24.560;2024-03-08T16:07:50;8.30;;;5.95;;
45326;SDS011;31062;49.678;24.560;2024-03-08T16:10:56;9.88;;;6.18;;
45326;SDS011;31062;49.678;24.560;2024-03-08T16:14:02;11.85;;;6.10;;
45326;SDS011;31062;49.678;24.560;2024-03-08T16:17:07;12.43;;;6.15;;
45326;SDS011;31062;49.678;24.560;2024-03-08T16:20:16;9.35;;;5.95;;
45326;SDS011;31062;49.678;24.560;2024-03-08T16:23:23;14.75;;;6.85;;
45326;SDS011;31062;49.678;24.560;2024-03-08T16:26:29;18.17;;;8.57;;
45326;SDS011;31062;49.678;24.560;2024-03-08T16:29:37;17.35;;;9.23;;
45326;SDS011;31062;49.678;24.560;2024-03-08T16:32:43;19.60;;;9.88;;
45326;SDS011;31062;49.678;24.560;2024-03-08T16:35:52;16.13;;;8.73;;
45326;SDS011;31062;49.678;24.560;2024-03-08T16:38:59;15.50;;;9.55;;
45326;SDS011;31062;49.678;24.560;2024-03-08T16:42:05;21.55;;;11.98;;
45326;SDS011;31062;49.678;24.560;2024-03-08T16:45:13;53.85;;;18.98;;
45326;SDS011;31062;49.678;24.560;2024-03-08T16:48:19;34.22;;;14.60;;
45326;SDS011;31062;49.678;24.560;2024-03-08T16:51:25;41.97;;;17.85;;
45326;SDS011;31062;49.678;24.560;2024-03-08T16:54:31;56.58;;;25.55;;
45326;SDS011;31062;49.678;24.560;2024-03-08T16:57:51;76.85;;;29.60;;
45326;SDS011;31062;49.678;24.560;2024-03-08T17:00:57;42.40;;;20.60;;
45326;SDS011;31062;49.678;24.560;2024-03-08T17:04:02;56.97;;;26.08;;
45326;SDS011;31062;49.678;24.560;2024-03-08T17:07:08;48.42;;;22.92;;
45326;SDS011;31062;49.678;24.560;2024-03-08T17:10:20;52.00;;;23.65;;
45326;SDS011;31062;49.678;24.560;2024-03-08T17:13:26;47.92;;;20.25;;
45326;SDS011;31062;49.678;24.560;2024-03-08T17:16:32;41.92;;;18.17;;
45326;SDS011;31062;49.678;24.560;2024-03-08T17:19:39;26.00;;;14.27;;
45326;SDS011;31062;49.678;24.560;2024-03-08T17:22:45;19.40;;;10.35;;
45326;SDS011;31062;49.678;24.560;2024-03-08T17:25:55;16.48;;;9.68;;
45326;SDS011;31062;49.678;24.560;2024-03-08T17:29:01;13.95;;;7.93;;
45326;SDS011;31062;49.678;24.560;2024-03-08T17:32:07;17.95;;;11.15;;
45326;SDS011;31062;49.678;24.560;2024-03-08T17:35:13;17.83;;;11.40;;
45326;SDS011;31062;49.678;24.560;2024-03-08T17:38:18;17.52;;;11.73;;
45326;SDS011;31062;49.678;24.560;2024-03-08T17:42:04;19.90;;;10.73;;
45326;SDS011;31062;49.678;24.560;2024-03-08T17:45:02;23.52;;;10.35;;